sensor_id;sensor_type;location;lat;lon;timestamp;pressure;altitude;pressure_sealevel;temperature;humidity
1776;BME280;885;42.626;23.200;2023-01-29T00:01:04;164750.94;;;-1.43;100.00
1776;BME280;885;42.626;23.200;2023-01-29T00:03:31;164719.50;;;-1.55;100.00
1776;BME280;885;42.626;23.200;2023-01-29T00:05:59;164738.66;;;-1.48;100.00
1776;BME280;885;42.626;23.200;2023-01-29T00:08:25;164785.09;;;-1.31;100.00
1776;BME280;885;42.626;23.200;2023-01-29T00:10:59;164737.28;;;-1.48;100.00
1776;BME280;885;42.626;23.200;2023-01-29T00:13:26;164744.13;;;-1.46;100.00
1776;BME280;885;42.626;23.200;2023-01-29T00:15:57;164752.31;;;-1.43;100.00
1776;BME280;885;42.626;23.200;2023-01-29T00:18:24;164749.56;;;-1.44;100.00
1776;BME280;885;42.626;23.200;2023-01-29T00:20:51;164727.72;;;-1.52;100.00
1776;BME280;885;42.626;23.200;2023-01-29T00:23:18;164756.41;;;-1.41;100.00
1776;BME280;885;42.626;23.200;2023-01-29T00:25:45;164760.50;;;-1.40;100.00
1776;BME280;885;42.626;23.200;2023-01-29T00:28:14;164726.34;;;-1.52;100.00
1776;BME280;885;42.626;23.200;2023-01-29T00:30:41;164742.72;;;-1.46;100.00
1776;BME280;885;42.626;23.200;2023-01-29T00:33:08;164731.81;;;-1.50;100.00
1776;BME280;885;42.626;23.200;2023-01-29T00:35:41;164759.16;;;-1.40;100.00
1776;BME280;885;42.626;23.200;2023-01-29T00:38:08;164759.16;;;-1.40;100.00
1776;BME280;885;42.626;23.200;2023-01-29T00:40:36;164719.50;;;-1.55;100.00
1776;BME280;885;42.626;23.200;2023-01-29T00:43:18;164738.66;;;-1.48;100.00
1776;BME280;885;42.626;23.200;2023-01-29T00:46:03;164763.25;;;-1.39;100.00
1776;BME280;885;42.626;23.200;2023-01-29T00:48:30;164783.72;;;-1.31;100.00
1776;BME280;885;42.626;23.200;2023-01-29T00:50:57;164821.94;;;-1.17;100.00
1776;BME280;885;42.626;23.200;2023-01-29T00:53:24;164779.63;;;-1.33;100.00
1776;BME280;885;42.626;23.200;2023-01-29T00:55:51;164745.50;;;-1.45;100.00
1776;BME280;885;42.626;23.200;2023-01-29T00:58:19;164750.94;;;-1.43;100.00
1776;BME280;885;42.626;23.200;2023-01-29T01:00:49;164789.19;;;-1.29;100.00
1776;BME280;885;42.626;23.200;2023-01-29T01:03:16;164801.47;;;-1.25;100.00
1776;BME280;885;42.626;23.200;2023-01-29T01:05:42;164831.56;;;-1.14;100.00
1776;BME280;885;42.626;23.200;2023-01-29T01:08:09;164745.50;;;-1.45;100.00
1776;BME280;885;42.626;23.200;2023-01-29T01:10:58;164771.41;;;-1.36;100.00
1776;BME280;885;42.626;23.200;2023-01-29T01:13:26;164748.19;;;-1.44;100.00
1776;BME280;885;42.626;23.200;2023-01-29T01:15:53;164771.41;;;-1.36;100.00
1776;BME280;885;42.626;23.200;2023-01-29T01:18:20;164801.47;;;-1.25;100.00
1776;BME280;885;42.626;23.200;2023-01-29T01:20:47;164837.00;;;-1.12;100.00
1776;BME280;885;42.626;23.200;2023-01-29T01:23:17;164882.09;;;-0.95;100.00
1776;BME280;885;42.626;23.200;2023-01-29T01:25:44;164914.88;;;-0.83;100.00
1776;BME280;885;42.626;23.200;2023-01-29T01:28:11;164898.47;;;-0.89;100.00
1776;BME280;885;42.626;23.200;2023-01-29T01:30:39;164861.63;;;-1.03;100.00
1776;BME280;885;42.626;23.200;2023-01-29T01:33:05;164865.69;;;-1.01;100.00
1776;BME280;885;42.626;23.200;2023-01-29T01:35:32;164841.09;;;-1.10;100.00
1776;BME280;885;42.626;23.200;2023-01-29T01:37:59;164800.09;;;-1.25;100.00
1776;BME280;885;42.626;23.200;2023-01-29T01:40:26;164791.94;;;-1.28;100.00
1776;BME280;885;42.626;23.200;2023-01-29T01:42:55;164789.19;;;-1.29;100.00
1776;BME280;885;42.626;23.200;2023-01-29T01:45:26;164774.16;;;-1.35;100.00
1776;BME280;885;42.626;23.200;2023-01-29T01:47:57;164775.56;;;-1.34;100.00
1776;BME280;885;42.626;23.200;2023-01-29T01:50:29;164723.66;;;-1.53;100.00
1776;BME280;885;42.626;23.200;2023-01-29T01:53:00;164770.09;;;-1.36;100.00
1776;BME280;885;42.626;23.200;2023-01-29T01:55:30;164785.09;;;-1.31;100.00
1776;BME280;885;42.626;23.200;2023-01-29T01:58:03;164830.16;;;-1.14;100.00
1776;BME280;885;42.626;23.200;2023-01-29T02:00:32;164750.94;;;-1.43;100.00
1776;BME280;885;42.626;23.200;2023-01-29T02:03:00;164776.88;;;-1.34;100.00
1776;BME280;885;42.626;23.200;2023-01-29T02:05:45;164821.94;;;-1.17;100.00
1776;BME280;885;42.626;23.200;2023-01-29T02:08:36;164753.66;;;-1.42;100.00
1776;BME280;885;42.626;23.200;2023-01-29T02:11:25;164714.06;;;-1.57;100.00
1776;BME280;885;42.626;23.200;2023-01-29T02:13:52;164701.81;;;-1.62;100.00
1776;BME280;885;42.626;23.200;2023-01-29T02:16:19;164714.06;;;-1.57;100.00
1776;BME280;885;42.626;23.200;2023-01-29T02:18:48;164800.09;;;-1.25;100.00
1776;BME280;885;42.626;23.200;2023-01-29T02:21:25;164832.94;;;-1.13;100.00
1776;BME280;885;42.626;23.200;2023-01-29T02:24:16;164868.41;;;-1.00;100.00
1776;BME280;885;42.626;23.200;2023-01-29T02:27:02;164895.78;;;-0.90;100.00
1776;BME280;885;42.626;23.200;2023-01-29T02:29:42;164901.25;;;-0.88;100.00
1776;BME280;885;42.626;23.200;2023-01-29T02:32:16;164951.78;;;-0.69;100.00
1776;BME280;885;42.626;23.200;2023-01-29T02:34:52;164970.91;;;-0.62;100.00
1776;BME280;885;42.626;23.200;2023-01-29T02:37:42;164979.13;;;-0.59;100.00
1776;BME280;885;42.626;23.200;2023-01-29T02:40:17;164959.97;;;-0.66;100.00
1776;BME280;885;42.626;23.200;2023-01-29T02:42:51;164981.81;;;-0.58;100.00
1776;BME280;885;42.626;23.200;2023-01-29T02:45:30;164998.22;;;-0.52;100.00
1776;BME280;885;42.626;23.200;2023-01-29T02:47:59;165017.38;;;-0.45;100.00
1776;BME280;885;42.626;23.200;2023-01-29T02:50:31;165022.84;;;-0.43;100.00
1776;BME280;885;42.626;23.200;2023-01-29T02:53:04;164999.59;;;-0.52;100.00
1776;BME280;885;42.626;23.200;2023-01-29T02:55:36;165021.47;;;-0.44;100.00
1776;BME280;885;42.626;23.200;2023-01-29T02:58:10;165029.69;;;-0.41;100.00
1776;BME280;885;42.626;23.200;2023-01-29T03:00:42;165003.75;;;-0.50;100.00
1776;BME280;885;42.626;23.200;2023-01-29T03:03:13;164979.13;;;-0.59;100.00
1776;BME280;885;42.626;23.200;2023-01-29T03:05:47;164972.28;;;-0.62;100.00
1776;BME280;885;42.626;23.200;2023-01-29T03:08:20;164910.78;;;-0.85;100.00
1776;BME280;885;42.626;23.200;2023-01-29T03:10:52;164927.19;;;-0.78;100.00
1776;BME280;885;42.626;23.200;2023-01-29T03:13:24;164959.97;;;-0.66;100.00
1776;BME280;885;42.626;23.200;2023-01-29T03:15:59;164972.28;;;-0.62;100.00
1776;BME280;885;42.626;23.200;2023-01-29T03:18:31;164893.03;;;-0.91;100.00
1776;BME280;885;42.626;23.200;2023-01-29T03:21:02;164898.47;;;-0.89;100.00
1776;BME280;885;42.626;23.200;2023-01-29T03:23:52;164906.69;;;-0.86;100.00
1776;BME280;885;42.626;23.200;2023-01-29T03:26:39;164942.19;;;-0.73;100.00
1776;BME280;885;42.626;23.200;2023-01-29T03:29:23;164884.81;;;-0.94;100.00
1776;BME280;885;42.626;23.200;2023-01-29T03:32:09;164852.03;;;-1.06;100.00
1776;BME280;885;42.626;23.200;2023-01-29T03:34:40;164839.72;;;-1.11;100.00
1776;BME280;885;42.626;23.200;2023-01-29T03:37:11;164862.94;;;-1.02;100.00
1776;BME280;885;42.626;23.200;2023-01-29T03:39:40;164846.56;;;-1.08;100.00
1776;BME280;885;42.626;23.200;2023-01-29T03:42:15;164865.69;;;-1.01;100.00
1776;BME280;885;42.626;23.200;2023-01-29T03:44:52;164898.47;;;-0.89;100.00
1776;BME280;885;42.626;23.200;2023-01-29T03:47:25;164950.41;;;-0.70;100.00
1776;BME280;885;42.626;23.200;2023-01-29T03:49:57;164977.75;;;-0.60;100.00
1776;BME280;885;42.626;23.200;2023-01-29T03:52:27;164905.31;;;-0.87;100.00
1776;BME280;885;42.626;23.200;2023-01-29T03:55:04;164862.94;;;-1.02;100.00
1776;BME280;885;42.626;23.200;2023-01-29T03:57:38;164827.47;;;-1.15;100.00
1776;BME280;885;42.626;23.200;2023-01-29T04:00:13;164856.09;;;-1.05;100.00
1776;BME280;885;42.626;23.200;2023-01-29T04:02:47;164884.81;;;-0.94;100.00
1776;BME280;885;42.626;23.200;2023-01-29T04:05:19;164902.56;;;-0.88;100.00
1776;BME280;885;42.626;23.200;2023-01-29T04:07:51;164912.16;;;-0.84;100.00
1776;BME280;885;42.626;23.200;2023-01-29T04:10:23;164841.09;;;-1.10;100.00
1776;BME280;885;42.626;23.200;2023-01-29T04:12:56;164821.94;;;-1.17;100.00
1776;BME280;885;42.626;23.200;2023-01-29T04:15:25;164878.00;;;-0.97;100.00
1776;BME280;885;42.626;23.200;2023-01-29T04:17:58;164816.50;;;-1.19;100.00
1776;BME280;885;42.626;23.200;2023-01-29T04:20:25;164781.00;;;-1.32;100.00
1776;BME280;885;42.626;23.200;2023-01-29T04:22:52;164786.47;;;-1.30;100.00
1776;BME280;885;42.626;23.200;2023-01-29T04:25:21;164779.63;;;-1.33;100.00
1776;BME280;885;42.626;23.200;2023-01-29T04:27:56;164797.41;;;-1.26;100.00
1776;BME280;885;42.626;23.200;2023-01-29T04:30:29;164841.09;;;-1.10;100.00
1776;BME280;885;42.626;23.200;2023-01-29T04:33:10;164879.34;;;-0.96;100.00
1776;BME280;885;42.626;23.200;2023-01-29T04:35:53;164867.09;;;-1.01;100.00
1776;BME280;885;42.626;23.200;2023-01-29T04:38:34;164906.69;;;-0.86;100.00
1776;BME280;885;42.626;23.200;2023-01-29T04:41:11;164939.50;;;-0.74;100.00
1776;BME280;885;42.626;23.200;2023-01-29T04:43:44;164954.50;;;-0.68;100.00
1776;BME280;885;42.626;23.200;2023-01-29T04:46:16;164934.03;;;-0.76;100.00
1776;BME280;885;42.626;23.200;2023-01-29T04:48:56;164886.19;;;-0.94;100.00
1776;BME280;885;42.626;23.200;2023-01-29T04:51:33;164895.78;;;-0.90;100.00
1776;BME280;885;42.626;23.200;2023-01-29T04:54:07;164917.63;;;-0.82;100.00
1776;BME280;885;42.626;23.200;2023-01-29T04:56:41;164955.88;;;-0.68;100.00
1776;BME280;885;42.626;23.200;2023-01-29T04:59:16;164981.81;;;-0.58;100.00
1776;BME280;885;42.626;23.200;2023-01-29T05:01:46;164996.91;;;-0.53;100.00
1776;BME280;885;42.626;23.200;2023-01-29T05:04:17;165026.94;;;-0.42;100.00
1776;BME280;885;42.626;23.200;2023-01-29T05:06:46;165051.56;;;-0.33;100.00
1776;BME280;885;42.626;23.200;2023-01-29T05:09:15;165037.91;;;-0.38;100.00
1776;BME280;885;42.626;23.200;2023-01-29T05:11:44;165046.09;;;-0.35;100.00
1776;BME280;885;42.626;23.200;2023-01-29T05:14:16;165046.09;;;-0.35;100.00
1776;BME280;885;42.626;23.200;2023-01-29T05:16:46;165046.09;;;-0.35;100.00
1776;BME280;885;42.626;23.200;2023-01-29T05:19:16;165039.25;;;-0.37;100.00
1776;BME280;885;42.626;23.200;2023-01-29T05:21:45;165024.22;;;-0.43;100.00
1776;BME280;885;42.626;23.200;2023-01-29T05:24:15;164990.06;;;-0.55;100.00
1776;BME280;885;42.626;23.200;2023-01-29T05:26:43;165005.06;;;-0.50;100.00
1776;BME280;885;42.626;23.200;2023-01-29T05:29:29;165036.53;;;-0.38;100.00
1776;BME280;885;42.626;23.200;2023-01-29T05:31:56;165046.09;;;-0.35;100.00
1776;BME280;885;42.626;23.200;2023-01-29T05:34:24;165024.22;;;-0.43;100.00
1776;BME280;885;42.626;23.200;2023-01-29T05:36:53;165036.53;;;-0.38;100.00
1776;BME280;885;42.626;23.200;2023-01-29T05:39:20;165044.72;;;-0.35;100.00
1776;BME280;885;42.626;23.200;2023-01-29T05:41:47;165048.84;;;-0.34;100.00
1776;BME280;885;42.626;23.200;2023-01-29T05:44:14;164959.97;;;-0.66;100.00
1776;BME280;885;42.626;23.200;2023-01-29T05:46:40;164942.19;;;-0.73;100.00
1776;BME280;885;42.626;23.200;2023-01-29T05:49:08;164980.50;;;-0.59;100.00
1776;BME280;885;42.626;23.200;2023-01-29T05:51:36;165002.34;;;-0.51;100.00
1776;BME280;885;42.626;23.200;2023-01-29T05:54:03;165018.75;;;-0.45;100.00
1776;BME280;885;42.626;23.200;2023-01-29T05:56:30;165033.78;;;-0.39;100.00
1776;BME280;885;42.626;23.200;2023-01-29T05:58:57;165052.94;;;-0.32;100.00
1776;BME280;885;42.626;23.200;2023-01-29T06:01:24;165062.47;;;-0.29;100.00
1776;BME280;885;42.626;23.200;2023-01-29T06:03:51;165042.00;;;-0.36;100.00
1776;BME280;885;42.626;23.200;2023-01-29T06:06:18;165055.63;;;-0.31;100.00
1776;BME280;885;42.626;23.200;2023-01-29T06:08:46;165085.72;;;-0.20;100.00
1776;BME280;885;42.626;23.200;2023-01-29T06:11:13;165066.56;;;-0.27;100.00
1776;BME280;885;42.626;23.200;2023-01-29T06:13:40;164994.13;;;-0.54;100.00
1776;BME280;885;42.626;23.200;2023-01-29T06:16:08;164999.59;;;-0.52;100.00
1776;BME280;885;42.626;23.200;2023-01-29T06:18:36;165037.91;;;-0.38;100.00
1776;BME280;885;42.626;23.200;2023-01-29T06:21:04;165051.56;;;-0.33;100.00
1776;BME280;885;42.626;23.200;2023-01-29T06:23:31;165073.41;;;-0.25;100.00
1776;BME280;885;42.626;23.200;2023-01-29T06:26:00;165106.28;;;-0.13;100.00
1776;BME280;885;42.626;23.200;2023-01-29T06:28:27;165126.75;;;-0.05;100.00
1776;BME280;885;42.626;23.200;2023-01-29T06:30:57;165125.38;;;-0.06;100.00
1776;BME280;885;42.626;23.200;2023-01-29T06:33:25;165126.75;;;-0.05;100.00
1776;BME280;885;42.626;23.200;2023-01-29T06:35:55;165140.47;;;0.00;100.00
1776;BME280;885;42.626;23.200;2023-01-29T06:38:22;165158.19;;;0.07;100.00
1776;BME280;885;42.626;23.200;2023-01-29T06:40:49;165160.94;;;0.08;100.00
1776;BME280;885;42.626;23.200;2023-01-29T06:43:17;165171.88;;;0.12;100.00
1776;BME280;885;42.626;23.200;2023-01-29T06:45:48;165174.59;;;0.13;100.00
1776;BME280;885;42.626;23.200;2023-01-29T06:48:15;165165.03;;;0.09;100.00
1776;BME280;885;42.626;23.200;2023-01-29T06:50:42;165182.81;;;0.16;100.00
1776;BME280;885;42.626;23.200;2023-01-29T06:53:09;165171.88;;;0.12;100.00
1776;BME280;885;42.626;23.200;2023-01-29T06:55:36;165171.88;;;0.12;100.00
1776;BME280;885;42.626;23.200;2023-01-29T06:58:06;165171.88;;;0.12;100.00
1776;BME280;885;42.626;23.200;2023-01-29T07:00:35;165162.31;;;0.08;100.00
1776;BME280;885;42.626;23.200;2023-01-29T07:03:02;165144.53;;;0.02;100.00
1776;BME280;885;42.626;23.200;2023-01-29T07:05:29;165174.59;;;0.13;100.00
1776;BME280;885;42.626;23.200;2023-01-29T07:07:56;165158.19;;;0.07;100.00
1776;BME280;885;42.626;23.200;2023-01-29T07:10:23;165139.06;;;-0.01;100.00
1776;BME280;885;42.626;23.200;2023-01-29T07:12:50;165155.47;;;0.06;100.00
1776;BME280;885;42.626;23.200;2023-01-29T07:15:17;165174.59;;;0.13;100.00
1776;BME280;885;42.626;23.200;2023-01-29T07:17:56;165188.28;;;0.18;100.00
1776;BME280;885;42.626;23.200;2023-01-29T07:20:24;165193.75;;;0.20;100.00
1776;BME280;885;42.626;23.200;2023-01-29T07:22:51;165177.34;;;0.14;100.00
1776;BME280;885;42.626;23.200;2023-01-29T07:25:18;165197.84;;;0.21;100.00
1776;BME280;885;42.626;23.200;2023-01-29T07:27:47;165215.63;;;0.28;100.00
1776;BME280;885;42.626;23.200;2023-01-29T07:30:14;165244.38;;;0.38;100.00
1776;BME280;885;42.626;23.200;2023-01-29T07:32:42;165253.97;;;0.42;100.00
1776;BME280;885;42.626;23.200;2023-01-29T07:35:10;165264.91;;;0.46;100.00
1776;BME280;885;42.626;23.200;2023-01-29T07:37:37;165238.91;;;0.36;100.00
1776;BME280;885;42.626;23.200;2023-01-29T07:40:05;165193.75;;;0.20;100.00
1776;BME280;885;42.626;23.200;2023-01-29T07:42:36;165171.88;;;0.12;100.00
1776;BME280;885;42.626;23.200;2023-01-29T07:45:03;165180.13;;;0.15;100.00
1776;BME280;885;42.626;23.200;2023-01-29T07:47:30;165171.88;;;0.12;100.00
1776;BME280;885;42.626;23.200;2023-01-29T07:49:56;165184.19;;;0.16;100.00
1776;BME280;885;42.626;23.200;2023-01-29T07:52:24;165181.44;;;0.15;100.00
1776;BME280;885;42.626;23.200;2023-01-29T07:54:51;165204.69;;;0.24;100.00
1776;BME280;885;42.626;23.200;2023-01-29T07:57:18;165225.25;;;0.31;100.00
1776;BME280;885;42.626;23.200;2023-01-29T07:59:45;165236.19;;;0.35;100.00
1776;BME280;885;42.626;23.200;2023-01-29T08:02:12;165248.50;;;0.40;100.00
1776;BME280;885;42.626;23.200;2023-01-29T08:04:39;165232.03;;;0.34;100.00
1776;BME280;885;42.626;23.200;2023-01-29T08:07:05;165202.00;;;0.23;100.00
1776;BME280;885;42.626;23.200;2023-01-29T08:09:36;165184.19;;;0.16;100.00
1776;BME280;885;42.626;23.200;2023-01-29T08:12:03;165184.19;;;0.16;100.00
1776;BME280;885;42.626;23.200;2023-01-29T08:14:29;165207.47;;;0.25;100.00
1776;BME280;885;42.626;23.200;2023-01-29T08:16:56;165232.03;;;0.34;100.00
1776;BME280;885;42.626;23.200;2023-01-29T08:19:23;165244.38;;;0.38;100.00
1776;BME280;885;42.626;23.200;2023-01-29T08:21:50;165255.31;;;0.42;100.00
1776;BME280;885;42.626;23.200;2023-01-29T08:24:20;165270.38;;;0.48;100.00
1776;BME280;885;42.626;23.200;2023-01-29T08:26:48;165273.09;;;0.49;100.00
1776;BME280;885;42.626;23.200;2023-01-29T08:29:15;165292.25;;;0.56;100.00
1776;BME280;885;42.626;23.200;2023-01-29T08:31:42;165288.19;;;0.54;100.00
1776;BME280;885;42.626;23.200;2023-01-29T08:34:09;165264.91;;;0.46;100.00
1776;BME280;885;42.626;23.200;2023-01-29T08:36:35;165293.66;;;0.56;100.00
1776;BME280;885;42.626;23.200;2023-01-29T08:39:02;165305.91;;;0.61;100.00
1776;BME280;885;42.626;23.200;2023-01-29T08:41:29;165314.16;;;0.64;100.00
1776;BME280;885;42.626;23.200;2023-01-29T08:43:57;165308.66;;;0.62;100.00
1776;BME280;885;42.626;23.200;2023-01-29T08:46:25;165330.56;;;0.70;100.00
1776;BME280;885;42.626;23.200;2023-01-29T08:48:52;165333.31;;;0.71;100.00
1776;BME280;885;42.626;23.200;2023-01-29T08:51:19;165336.03;;;0.72;100.00
1776;BME280;885;42.626;23.200;2023-01-29T08:53:46;165300.44;;;0.59;100.00
1776;BME280;885;42.626;23.200;2023-01-29T08:56:13;165267.63;;;0.47;100.00
1776;BME280;885;42.626;23.200;2023-01-29T08:58:40;165262.16;;;0.45;100.00
1776;BME280;885;42.626;23.200;2023-01-29T09:01:11;165270.38;;;0.48;100.00
1776;BME280;885;42.626;23.200;2023-01-29T09:03:38;165237.50;;;0.36;100.00
1776;BME280;885;42.626;23.200;2023-01-29T09:06:08;165260.78;;;0.44;100.00
1776;BME280;885;42.626;23.200;2023-01-29T09:08:35;165279.94;;;0.51;100.00
1776;BME280;885;42.626;23.200;2023-01-29T09:11:02;165304.59;;;0.60;100.00
1776;BME280;885;42.626;23.200;2023-01-29T09:13:28;165303.22;;;0.60;100.00
1776;BME280;885;42.626;23.200;2023-01-29T09:15:58;165303.22;;;0.60;100.00
1776;BME280;885;42.626;23.200;2023-01-29T09:18:26;165303.22;;;0.60;100.00
1776;BME280;885;42.626;23.200;2023-01-29T09:20:53;165319.63;;;0.66;100.00
1776;BME280;885;42.626;23.200;2023-01-29T09:23:20;165342.88;;;0.74;100.00
1776;BME280;885;42.626;23.200;2023-01-29T09:25:47;165363.38;;;0.82;100.00
1776;BME280;885;42.626;23.200;2023-01-29T09:28:14;165363.38;;;0.82;100.00
1776;BME280;885;42.626;23.200;2023-01-29T09:30:42;165336.03;;;0.72;100.00
1776;BME280;885;42.626;23.200;2023-01-29T09:33:09;165334.66;;;0.71;100.00
1776;BME280;885;42.626;23.200;2023-01-29T09:35:39;165333.31;;;0.71;100.00
1776;BME280;885;42.626;23.200;2023-01-29T09:38:06;165316.91;;;0.65;100.00
1776;BME280;885;42.626;23.200;2023-01-29T09:40:37;165308.66;;;0.62;100.00
1776;BME280;885;42.626;23.200;2023-01-29T09:43:12;165329.19;;;0.69;100.00
1776;BME280;885;42.626;23.200;2023-01-29T09:45:48;165333.31;;;0.71;100.00
1776;BME280;885;42.626;23.200;2023-01-29T09:48:15;165344.25;;;0.75;100.00
1776;BME280;885;42.626;23.200;2023-01-29T09:50:46;165368.84;;;0.84;100.00
1776;BME280;885;42.626;23.200;2023-01-29T09:53:18;165366.16;;;0.83;100.00
1776;BME280;885;42.626;23.200;2023-01-29T09:55:49;165293.66;;;0.56;100.00
1776;BME280;885;42.626;23.200;2023-01-29T09:58:19;165290.88;;;0.55;100.00
1776;BME280;885;42.626;23.200;2023-01-29T10:00:56;165308.66;;;0.62;100.00
1776;BME280;885;42.626;23.200;2023-01-29T10:04:05;165333.31;;;0.71;100.00
1776;BME280;885;42.626;23.200;2023-01-29T10:06:42;165303.22;;;0.60;100.00
1776;BME280;885;42.626;23.200;2023-01-29T10:09:42;165322.38;;;0.67;100.00
1776;BME280;885;42.626;23.200;2023-01-29T10:12:22;165338.78;;;0.73;100.00
1776;BME280;885;42.626;23.200;2023-01-29T10:14:58;165340.13;;;0.73;100.00
1776;BME280;885;42.626;23.200;2023-01-29T10:17:43;165344.25;;;0.75;100.00
1776;BME280;885;42.626;23.200;2023-01-29T10:20:27;165368.84;;;0.84;100.00
1776;BME280;885;42.626;23.200;2023-01-29T10:23:06;165389.41;;;0.92;100.00
1776;BME280;885;42.626;23.200;2023-01-29T10:25:39;165366.16;;;0.83;100.00
1776;BME280;885;42.626;23.200;2023-01-29T10:28:19;165355.22;;;0.79;100.00
1776;BME280;885;42.626;23.200;2023-01-29T10:30:50;165377.09;;;0.87;100.00
1776;BME280;885;42.626;23.200;2023-01-29T10:33:22;165383.94;;;0.90;100.00
1776;BME280;885;42.626;23.200;2023-01-29T10:35:54;165390.81;;;0.92;100.00
1776;BME280;885;42.626;23.200;2023-01-29T10:38:30;165393.50;;;0.93;100.00
1776;BME280;885;42.626;23.200;2023-01-29T10:41:13;165407.22;;;0.98;100.00
1776;BME280;885;42.626;23.200;2023-01-29T10:43:51;165407.22;;;0.98;100.00
1776;BME280;885;42.626;23.200;2023-01-29T10:46:30;165408.53;;;0.99;100.00
1776;BME280;885;42.626;23.200;2023-01-29T10:49:09;165407.22;;;0.98;100.00
1776;BME280;885;42.626;23.200;2023-01-29T10:51:53;165418.16;;;1.02;100.00
1776;BME280;885;42.626;23.200;2023-01-29T10:54:37;165420.88;;;1.03;100.00
1776;BME280;885;42.626;23.200;2023-01-29T10:57:14;165426.34;;;1.05;100.00
1776;BME280;885;42.626;23.200;2023-01-29T10:59:56;165430.47;;;1.07;99.90
1776;BME280;885;42.626;23.200;2023-01-29T11:02:25;165420.88;;;1.03;100.00
1776;BME280;885;42.626;23.200;2023-01-29T11:04:52;165415.41;;;1.01;100.00
1776;BME280;885;42.626;23.200;2023-01-29T11:07:20;165412.69;;;1.00;100.00
1776;BME280;885;42.626;23.200;2023-01-29T11:09:55;165414.00;;;1.01;100.00
1776;BME280;885;42.626;23.200;2023-01-29T11:12:25;165423.63;;;1.04;100.00
1776;BME280;885;42.626;23.200;2023-01-29T11:14:58;165409.91;;;0.99;100.00
1776;BME280;885;42.626;23.200;2023-01-29T11:17:27;165434.56;;;1.08;100.00
1776;BME280;885;42.626;23.200;2023-01-29T11:19:54;165426.34;;;1.05;100.00
1776;BME280;885;42.626;23.200;2023-01-29T11:22:22;165379.81;;;0.88;100.00
1776;BME280;885;42.626;23.200;2023-01-29T11:25:09;165396.28;;;0.94;100.00
1776;BME280;885;42.626;23.200;2023-01-29T11:27:42;165409.91;;;0.99;100.00
1776;BME280;885;42.626;23.200;2023-01-29T11:30:14;165409.91;;;0.99;100.00
1776;BME280;885;42.626;23.200;2023-01-29T11:32:49;165400.34;;;0.96;100.00
1776;BME280;885;42.626;23.200;2023-01-29T11:35:22;165390.81;;;0.92;100.00
1776;BME280;885;42.626;23.200;2023-01-29T11:37:50;165385.28;;;0.90;100.00
1776;BME280;885;42.626;23.200;2023-01-29T11:43:31;165427.72;;;1.06;100.00
1776;BME280;885;42.626;23.200;2023-01-29T11:46:01;165420.88;;;1.03;100.00
1776;BME280;885;42.626;23.200;2023-01-29T11:48:42;165420.88;;;1.03;100.00
1776;BME280;885;42.626;23.200;2023-01-29T11:51:11;165282.69;;;0.52;100.00
1776;BME280;885;42.626;23.200;2023-01-29T11:53:50;165234.81;;;0.35;100.00
1776;BME280;885;42.626;23.200;2023-01-29T11:56:22;165175.97;;;0.13;100.00
1776;BME280;885;42.626;23.200;2023-01-29T11:58:53;165196.53;;;0.21;100.00
1776;BME280;885;42.626;23.200;2023-01-29T12:01:29;165139.06;;;-0.01;100.00
1776;BME280;885;42.626;23.200;2023-01-29T12:03:58;165152.72;;;0.05;100.00
1776;BME280;885;42.626;23.200;2023-01-29T12:06:31;165163.66;;;0.09;100.00
1776;BME280;885;42.626;23.200;2023-01-29T12:09:02;165197.84;;;0.21;100.00
1776;BME280;885;42.626;23.200;2023-01-29T12:11:35;165158.19;;;0.07;100.00
1776;BME280;885;42.626;23.200;2023-01-29T12:14:04;165185.59;;;0.17;100.00
1776;BME280;885;42.626;23.200;2023-01-29T12:16:34;165158.19;;;0.07;100.00
1776;BME280;885;42.626;23.200;2023-01-29T12:19:09;165207.47;;;0.25;100.00
1776;BME280;885;42.626;23.200;2023-01-29T12:21:43;165244.38;;;0.38;100.00
1776;BME280;885;42.626;23.200;2023-01-29T12:24:23;165277.19;;;0.50;100.00
1776;BME280;885;42.626;23.200;2023-01-29T12:26:57;165308.66;;;0.62;100.00
1776;BME280;885;42.626;23.200;2023-01-29T12:29:33;165333.31;;;0.71;100.00
1776;BME280;885;42.626;23.200;2023-01-29T12:32:08;165353.81;;;0.78;100.00
1776;BME280;885;42.626;23.200;2023-01-29T12:34:43;165368.84;;;0.84;100.00
1776;BME280;885;42.626;23.200;2023-01-29T12:37:18;165371.63;;;0.85;100.00
1776;BME280;885;42.626;23.200;2023-01-29T12:39:48;165353.81;;;0.78;100.00
1776;BME280;885;42.626;23.200;2023-01-29T12:42:18;165346.97;;;0.76;100.00
1776;BME280;885;42.626;23.200;2023-01-29T12:44:50;165341.50;;;0.74;100.00
1776;BME280;885;42.626;23.200;2023-01-29T12:47:21;165308.66;;;0.62;100.00
1776;BME280;885;42.626;23.200;2023-01-29T12:49:51;165278.56;;;0.51;100.00
1776;BME280;885;42.626;23.200;2023-01-29T12:52:33;165189.66;;;0.18;100.00
1776;BME280;885;42.626;23.200;2023-01-29T12:55:06;165202.00;;;0.23;100.00
1776;BME280;885;42.626;23.200;2023-01-29T12:57:42;165208.78;;;0.25;100.00
1776;BME280;885;42.626;23.200;2023-01-29T13:00:14;165229.34;;;0.33;100.00
1776;BME280;885;42.626;23.200;2023-01-29T13:02:59;165212.94;;;0.27;100.00
1776;BME280;885;42.626;23.200;2023-01-29T13:14:00;165181.44;;;0.15;100.00
1776;BME280;885;42.626;23.200;2023-01-29T13:16:33;165043.38;;;-0.36;100.00
1776;BME280;885;42.626;23.200;2023-01-29T13:19:05;165065.25;;;-0.28;100.00
1776;BME280;885;42.626;23.200;2023-01-29T13:21:36;165084.34;;;-0.21;100.00
1776;BME280;885;42.626;23.200;2023-01-29T13:24:10;165136.31;;;-0.02;100.00
1776;BME280;885;42.626;23.200;2023-01-29T13:26:40;165166.41;;;0.10;100.00
1776;BME280;885;42.626;23.200;2023-01-29T13:29:20;165207.47;;;0.25;100.00
1776;BME280;885;42.626;23.200;2023-01-29T13:31:48;165247.13;;;0.39;100.00
1776;BME280;885;42.626;23.200;2023-01-29T13:34:21;165278.56;;;0.51;100.00
1776;BME280;885;42.626;23.200;2023-01-29T13:36:50;165303.22;;;0.60;100.00
1776;BME280;885;42.626;23.200;2023-01-29T13:39:27;165314.16;;;0.64;100.00